Time;durP1;ratioP1;P1;durP2;ratioP2;P2;SDS_P1;SDS_P2;PMS_P1;PMS_P2;Temp;Humidity;BMP_temperature;BMP_pressure;BME280_temperature;BME280_humidity;BME280_pressure;Samples;Min_cycle;Max_cycle;Signal;HPM_P1;HPM_P2
2021/12/30 00:09:38;;;;;;;20.17;4.60;;;;;;;10.04;100.00;100411.88;785659;24;4743;-86
2021/12/30 00:11:09;;;;;;;22.13;5.07;;;;;;;10.05;100.00;100419.69;166976;25;10575806;-87
2021/12/30 00:11:35;;;;;;;21.03;5.30;;;;;;;10.04;100.00;100440.59;358215;25;10478763;-86
2021/12/30 00:11:56;;;;;;;16.38;4.80;;;;;;;10.03;100.00;100431.03;784948;25;1273;-86
2021/12/30 00:12:17;;;;;;;22.67;4.80;;;;;;;10.00;100.00;100431.03;783117;25;820;-88
2021/12/30 00:12:50;;;;;;;19.90;4.73;;;;;;;9.98;100.00;100420.63;778966;25;1241;-86
2021/12/30 00:13:13;;;;;;;17.77;4.68;;;;;;;9.98;100.00;100432.78;780552;24;4330;-86
2021/12/30 00:13:44;;;;;;;19.08;4.88;;;;;;;9.96;100.00;100408.44;783189;25;764;-87
2021/12/30 00:14:31;;;;;;;20.80;4.60;;;;;;;9.92;100.00;100438.91;790826;24;1417;-86
2021/12/30 00:15:32;;;;;;;20.17;5.10;;;;;;;9.94;100.00;100418.00;797523;24;1240;-86
2021/12/30 00:16:09;;;;;;;25.48;5.20;;;;;;;9.91;100.00;100436.31;791881;24;1376;-86
2021/12/30 00:16:43;;;;;;;20.10;5.05;;;;;;;9.87;100.00;100415.44;793202;24;4969;-87
2021/12/30 00:17:29;;;;;;;24.13;5.35;;;;;;;9.86;100.00;100452.00;803562;24;1516;-87
2021/12/30 00:18:10;;;;;;;;;;;;;;;;;;;;;
2021/12/30 00:18:41;;;;;;;25.30;4.90;;;;;;;9.84;100.00;100457.25;802876;24;961;-86
2021/12/30 00:19:12;;;;;;;26.50;5.15;;;;;;;9.83;100.00;100439.84;811902;24;1301;-87
2021/12/30 00:19:42;;;;;;;22.94;5.24;;;;;;;9.84;100.00;100436.38;801825;24;4995;-87
2021/12/30 00:20:09;;;;;;;18.90;4.72;;;;;;;9.83;100.00;100439.84;822879;24;1202;-86
2021/12/30 00:21:44;;;;;;;22.35;5.03;;;;;;;9.80;100.00;100439.88;825454;23;1371;-86
2021/12/30 00:22:29;;;;;;;24.85;5.18;;;;;;;9.79;100.00;100440.72;815333;23;4307;-87
2021/12/30 00:23:09;;;;;;;22.77;5.13;;;;;;;9.79;100.00;100438.13;826578;23;1393;-86
2021/12/30 00:23:53;;;;;;;;;;;;;;;;;;;;;
2021/12/30 00:24:40;;;;;;;26.50;5.10;;;;;;;9.75;100.00;100446.84;831470;23;1351;-86
2021/12/30 00:26:36;;;;;;;23.45;5.28;;;;;;;9.77;100.00;100476.41;820383;23;4736;-86
2021/12/30 00:27:03;;;;;;;22.40;5.43;;;;;;;9.77;100.00;100449.44;837936;23;1322;-86
2021/12/30 00:28:15;;;;;;;25.17;6.65;;;;;;;9.99;100.00;100439.75;830896;23;1258;-87
2021/12/30 00:29:52;;;;;;;24.23;5.53;;;;;;;10.18;100.00;100457.03;828125;23;1380;-86
2021/12/30 00:31:27;;;;;;;17.98;4.85;;;;;;;10.05;100.00;100482.38;830949;23;1271;-87
2021/12/30 00:32:22;;;;;;;22.77;5.57;;;;;;;10.19;100.00;100447.44;797745;23;5035;-86
2021/12/30 00:32:53;;;;;;;23.48;5.43;;;;;;;10.10;100.00;100448.38;820396;24;1283;-86
2021/12/30 00:33:32;;;;;;;21.15;5.53;;;;;;;10.05;100.00;100477.16;815406;24;1398;-86
2021/12/30 00:34:17;;;;;;;20.67;5.53;;;;;;;9.99;100.00;100481.53;823187;23;1196;-86
2021/12/30 00:34:53;;;;;;;19.13;5.10;;;;;;;9.96;100.00;100487.63;807699;24;4677;-86
2021/12/30 00:35:33;;;;;;;24.15;5.60;;;;;;;9.96;100.00;100466.75;822344;24;1324;-86
2021/12/30 00:36:45;;;;;;;22.30;5.18;;;;;;;9.95;100.00;100445.88;830209;23;1451;-86
2021/12/30 00:38:17;;;;;;;23.52;5.15;;;;;;;9.89;100.00;100472.88;806105;23;4562;-87
2021/12/30 00:40:25;;;;;;;22.52;5.15;;;;;;;9.87;100.00;100485.94;827121;23;1411;-86
2021/12/30 00:41:11;;;;;;;;;;;;;;;;;;;;;
2021/12/30 00:42:27;;;;;;;;;;;;;;;;;;;;;
2021/12/30 00:43:22;;;;;;;24.30;5.20;;;;;;;9.79;100.00;100487.72;818955;23;1251;-86
2021/12/30 00:44:05;;;;;;;27.30;6.10;;;;;;;9.77;100.00;100499.91;801102;24;4683;-87
2021/12/30 00:44:46;;;;;;;26.83;5.60;;;;;;;9.77;100.00;100472.94;818871;24;1173;-87
2021/12/30 00:45:13;;;;;;;22.27;5.50;;;;;;;9.73;100.00;100456.41;819682;23;1436;-86
2021/12/30 00:45:37;;;;;;;24.05;5.55;;;;;;;9.74;100.00;100481.66;822459;23;1336;-86
2021/12/30 00:46:18;;;;;;;25.15;5.68;;;;;;;9.73;100.00;100487.72;825307;23;911;-86
2021/12/30 00:46:44;;;;;;;22.35;5.25;;;;;;;9.84;100.00;100478.13;822148;23;1238;-86
2021/12/30 00:47:51;;;;;;;21.98;5.20;;;;;;;9.86;100.00;100491.19;815927;24;1334;-86
2021/12/30 00:48:49;;;;;;;20.40;5.45;;;;;;;9.84;100.00;100491.19;815464;24;1142;-86
2021/12/30 00:49:38;;;;;;;25.67;5.10;;;;;;;9.79;100.00;100482.50;819224;24;1399;-86
2021/12/30 00:52:02;;;;;;;26.20;5.40;;;;;;;9.87;100.00;100517.28;805338;24;1327;-86
2021/12/30 00:52:28;;;;;;;21.75;5.30;;;;;;;9.92;100.00;100474.63;824560;23;1644;-87
2021/12/30 00:53:08;;;;;;;19.75;4.95;;;;;;;9.88;100.00;100469.41;829004;23;1270;-87
2021/12/30 00:53:34;;;;;;;21.20;4.93;;;;;;;9.86;100.00;100501.63;828957;23;1252;-87
2021/12/30 00:54:16;;;;;;;;;;;;;;;;;;;;;
2021/12/30 00:55:23;;;;;;;21.23;5.28;;;;;;;10.02;100.00;100507.63;830347;23;981;-86
2021/12/30 00:55:49;;;;;;;21.88;5.15;;;;;;;10.00;100.00;100493.72;828812;23;4701;-86
2021/12/30 00:56:13;;;;;;;24.75;5.57;;;;;;;9.95;100.00;100500.69;830142;23;1264;-86
2021/12/30 00:56:37;;;;;;;21.45;5.35;;;;;;;9.95;100.00;100477.19;831238;23;1167;-86
2021/12/30 00:57:15;;;;;;;19.33;4.97;;;;;;;9.95;100.00;100490.25;828679;23;1411;-86
2021/12/30 00:57:50;;;;;;;26.92;5.68;;;;;;;9.93;100.00;100486.78;837979;23;1370;-86
2021/12/30 00:58:19;;;;;;;24.55;5.15;;;;;;;9.89;100.00;100507.69;826783;23;4222;-86
2021/12/30 00:58:44;;;;;;;24.80;5.18;;;;;;;9.89;100.00;100507.69;826810;23;1280;-86
2021/12/30 00:59:09;;;;;;;22.20;5.13;;;;;;;9.87;100.00;100483.34;823079;24;1225;-86
2021/12/30 00:59:46;;;;;;;26.73;5.30;;;;;;;9.88;100.00;100505.06;822563;24;1459;-86
2021/12/30 01:00:21;;;;;;;21.10;5.32;;;;;;;9.84;100.00;100498.13;829429;23;1275;-86
2021/12/30 01:01:05;;;;;;;;;;;;;;;;;;;;;
2021/12/30 01:01:28;;;;;;;23.42;5.40;;;;;;;9.82;100.00;100492.91;831635;23;4288;-86
2021/12/30 01:02:32;;;;;;;22.23;5.05;;;;;;;9.93;100.00;100486.78;825615;23;1135;-85
2021/12/30 01:03:28;;;;;;;21.40;4.78;;;;;;;9.86;100.00;100512.06;829180;23;1494;-86
2021/12/30 01:04:31;;;;;;;23.95;5.22;;;;;;;9.86;100.00;100497.25;833566;23;1344;-87
2021/12/30 01:05:02;;;;;;;23.45;5.32;;;;;;;9.93;100.00;100492.88;828942;23;4699;-86
2021/12/30 01:05:51;;;;;;;24.42;5.28;;;;;;;9.86;100.00;100502.47;825880;23;1466;-86
2021/12/30 01:06:31;;;;;;;;;;;;;;;;;;;;;
2021/12/30 01:07:24;;;;;;;21.77;5.40;;;;;;;9.83;100.00;100510.34;830972;23;1290;-86
2021/12/30 01:08:06;;;;;;;22.60;5.05;;;;;;;9.84;100.00;100509.47;828918;23;4748;-86
2021/12/30 01:08:32;;;;;;;22.48;5.38;;;;;;;9.95;100.00;100514.63;834264;23;1585;-86
2021/12/30 01:09:07;;;;;;;23.92;5.25;;;;;;;9.86;100.00;100492.03;831348;23;1244;-86
2021/12/30 01:09:44;;;;;;;;;;;;;;;;;;;;;
2021/12/30 01:10:27;;;;;;;22.85;5.63;;;;;;;9.92;100.00;100491.13;830235;23;1226;-86
2021/12/30 01:11:09;;;;;;;21.75;5.30;;;;;;;9.85;100.00;100505.94;805606;24;4867;-86
2021/12/30 01:11:58;;;;;;;23.80;5.30;;;;;;;9.82;100.00;100511.19;822226;23;1346;-86
2021/12/30 01:12:36;;;;;;;22.98;5.45;;;;;;;9.79;100.00;100506.00;817731;24;1318;-86
2021/12/30 01:13:07;;;;;;;20.98;5.50;;;;;;;9.78;100.00;100495.56;822528;23;1196;-86
2021/12/30 01:13:30;;;;;;;20.45;5.50;;;;;;;9.96;100.00;100492.00;809743;23;4302;-85
2021/12/30 01:14:15;;;;;;;25.65;5.70;;;;;;;9.95;100.00;100485.88;826717;23;1217;-86
2021/12/30 01:15:08;;;;;;;21.10;5.40;;;;;;;10.13;100.00;100484.91;826024;23;1220;-86
2021/12/30 01:15:59;;;;;;;;;;;;;;;;;;;;;
2021/12/30 01:16:24;;;;;;;19.33;5.25;;;;;;;9.98;100.00;100490.22;818049;23;4447;-86
2021/12/30 01:16:53;;;;;;;22.40;5.43;;;;;;;9.93;100.00;100508.53;833849;23;1208;-86
2021/12/30 01:17:26;;;;;;;17.55;5.28;;;;;;;9.92;100.00;100506.81;830564;23;1304;-86
2021/12/30 01:18:10;;;;;;;20.13;5.03;;;;;;;9.98;100.00;100514.63;822293;23;854;-86
2021/12/30 01:20:29;;;;;;;22.13;5.40;;;;;;;10.00;100.00;100491.09;827646;23;1234;-86
2021/12/30 01:21:20;;;;;;;20.55;5.30;;;;;;;9.97;100.00;100515.50;830241;23;908;-86
2021/12/30 01:21:43;;;;;;;21.33;5.57;;;;;;;10.09;100.00;100498.00;835024;23;1233;-86
2021/12/30 01:22:11;;;;;;;21.13;5.50;;;;;;;10.18;100.00;100493.59;834574;23;1439;-86
2021/12/30 01:22:35;;;;;;;21.48;5.50;;;;;;;10.26;100.00;100472.69;821257;24;4842;-86
2021/12/30 01:22:59;;;;;;;24.13;5.50;;;;;;;10.22;100.00;100484.88;822712;24;1417;-86
2021/12/30 01:23:24;;;;;;;22.52;5.57;;;;;;;10.15;100.00;100477.97;822386;23;1253;-85
2021/12/30 01:23:45;;;;;;;21.27;5.70;;;;;;;10.14;100.00;100504.94;822249;23;1353;-86
2021/12/30 01:24:12;;;;;;;23.98;6.05;;;;;;;10.14;100.00;100497.13;819392;24;1363;-87
2021/12/30 01:24:41;;;;;;;22.52;5.40;;;;;;;10.31;100.00;100517.91;826409;23;1405;-87
2021/12/30 01:25:07;;;;;;;18.98;5.03;;;;;;;10.25;100.00;100484.00;828491;23;848;-86
2021/12/30 01:26:33;;;;;;;22.98;5.75;;;;;;;10.09;100.00;100508.47;814580;24;1354;-86
2021/12/30 01:26:57;;;;;;;24.77;5.35;;;;;;;10.09;100.00;100513.69;829788;23;1351;-86
2021/12/30 01:27:28;;;;;;;18.85;5.13;;;;;;;10.24;100.00;100529.28;829455;23;1251;-86
2021/12/30 01:28:00;;;;;;;17.88;4.82;;;;;;;10.21;100.00;100529.31;822707;23;1395;-86
2021/12/30 01:28:22;;;;;;;20.92;5.43;;;;;;;10.14;100.00;100499.72;821070;23;4222;-85
2021/12/30 01:28:49;;;;;;;21.60;5.38;;;;;;;10.10;100.00;100523.28;827639;23;856;-86
2021/12/30 01:29:09;;;;;;;20.75;5.70;;;;;;;10.04;100.00;100526.78;825641;23;935;-86
2021/12/30 01:29:33;;;;;;;21.58;5.40;;;;;;;10.03;100.00;100489.34;829598;23;1322;-86
2021/12/30 01:30:25;;;;;;;26.80;6.10;;;;;;;10.01;100.00;100498.03;831672;23;1185;-86
2021/12/30 01:30:56;;;;;;;24.48;5.25;;;;;;;9.94;100.00;100518.13;830558;23;1361;-86
2021/12/30 01:31:21;;;;;;;23.67;5.60;;;;;;;9.93;100.00;100492.00;812178;23;4207;-86
2021/12/30 01:31:44;;;;;;;22.58;5.50;;;;;;;9.92;100.00;100516.38;828148;23;1311;-85
2021/12/30 01:32:09;;;;;;;22.27;5.95;;;;;;;9.88;100.00;100521.63;821682;24;1257;-86
2021/12/30 01:32:34;;;;;;;22.05;5.93;;;;;;;9.87;100.00;100487.66;823126;24;1279;-86
2021/12/30 01:32:55;;;;;;;23.27;5.63;;;;;;;9.85;100.00;100513.78;823700;23;991;-86
2021/12/30 01:33:19;;;;;;;25.27;5.80;;;;;;;9.82;100.00;100479.88;820164;24;750;-86
2021/12/30 01:33:44;;;;;;;24.15;5.78;;;;;;;9.81;100.00;100512.06;830461;23;1313;-85
2021/12/30 01:34:19;;;;;;;19.90;5.38;;;;;;;9.79;100.00;100510.31;828851;23;1321;-85
2021/12/30 01:34:54;;;;;;;22.17;5.95;;;;;;;9.78;100.00;100509.47;808968;23;4822;-86
2021/12/30 01:35:25;;;;;;;23.05;6.43;;;;;;;9.78;100.00;100511.22;821964;24;1419;-86
2021/12/30 01:35:49;;;;;;;23.17;6.10;;;;;;;9.76;100.00;100492.06;826947;23;1227;-87
2021/12/30 01:36:12;;;;;;;21.38;6.00;;;;;;;9.76;100.00;100508.63;830448;23;1274;-85
2021/12/30 01:37:05;;;;;;;;;;;;;;;;;;;;;
2021/12/30 01:37:30;;;;;;;25.05;6.70;;;;;;;9.76;100.00;100529.50;822175;23;4222;-86
2021/12/30 01:38:16;;;;;;;22.50;6.80;;;;;;;9.81;100.00;100513.81;820121;23;1441;-86
2021/12/30 01:38:44;;;;;;;25.30;6.85;;;;;;;9.81;100.00;100514.69;818681;24;1218;-86
2021/12/30 01:39:20;;;;;;;24.35;6.47;;;;;;;9.85;100.00;100494.66;818134;24;1378;-86
2021/12/30 01:39:43;;;;;;;25.30;6.43;;;;;;;9.87;100.00;100532.06;819688;24;1251;-86
2021/12/30 01:40:33;;;;;;;22.77;6.00;;;;;;;9.85;100.00;100521.63;818087;24;1353;-86
2021/12/30 01:41:05;;;;;;;;;;;;;;;;;;;;;
2021/12/30 01:41:40;;;;;;;23.95;6.28;;;;;;;9.80;100.00;100532.97;819793;24;1495;-86
2021/12/30 01:42:02;;;;;;;25.90;5.90;;;;;;;9.80;100.00;100533.84;822919;24;1347;-86
2021/12/30 01:42:25;;;;;;;23.65;6.25;;;;;;;9.80;100.00;100497.28;823700;24;917;-86
2021/12/30 01:42:50;;;;;;;22.50;6.37;;;;;;;9.85;100.00;100511.19;817880;24;1233;-85
2021/12/30 01:43:19;;;;;;;21.00;6.10;;;;;;;9.99;100.00;100515.47;802168;24;4206;-86
2021/12/30 01:43:42;;;;;;;22.30;5.93;;;;;;;9.95;100.00;100511.16;822492;24;1171;-87
2021/12/30 01:44:14;;;;;;;;;;;;;;;;;;;;;
2021/12/30 01:44:41;;;;;;;22.45;6.22;;;;;;;9.96;100.00;100498.06;822502;24;1356;-86
2021/12/30 01:45:15;;;;;;;25.25;6.45;;;;;;;9.92;100.00;100526.84;820050;24;1209;-86
2021/12/30 01:46:04;;;;;;;24.90;6.05;;;;;;;9.90;100.00;100521.63;822975;24;1391;-86
2021/12/30 01:46:45;;;;;;;23.08;6.10;;;;;;;9.86;100.00;100527.72;820139;24;4902;-86
2021/12/30 01:47:18;;;;;;;;;;;;;;;;;;;;;
2021/12/30 01:47:51;;;;;;;23.30;6.05;;;;;;;9.98;100.00;100538.13;822394;24;1451;-87
2021/12/30 01:48:15;;;;;;;20.80;6.07;;;;;;;9.94;100.00;100506.78;823329;23;1314;-86
2021/12/30 01:48:52;;;;;;;23.05;6.00;;;;;;;9.92;100.00;100506.81;821874;23;1174;-86
2021/12/30 01:49:14;;;;;;;21.05;5.53;;;;;;;9.93;100.00;100552.06;809846;23;4237;-85
2021/12/30 01:49:51;;;;;;;;;;;;;;;;;;;;;
2021/12/30 01:50:42;;;;;;;22.48;5.82;;;;;;;9.92;100.00;100509.41;823833;24;956;-85
2021/12/30 01:51:15;;;;;;;25.65;5.68;;;;;;;9.93;100.00;100508.53;818293;24;1263;-86
2021/12/30 01:51:54;;;;;;;23.50;5.85;;;;;;;9.92;100.00;100547.72;817925;24;1374;-86
2021/12/30 01:52:15;;;;;;;23.75;5.68;;;;;;;9.89;100.00;100514.66;818423;24;4298;-85
2021/12/30 01:52:50;;;;;;;25.08;5.60;;;;;;;9.92;100.00;100534.66;826789;23;1417;-86
2021/12/30 01:53:30;;;;;;;;;;;;;;;;;;;;;
2021/12/30 01:54:08;;;;;;;23.33;5.93;;;;;;;10.21;100.00;100535.38;822231;23;1224;-85
2021/12/30 01:54:45;;;;;;;21.90;6.00;;;;;;;10.23;100.00;100507.53;822717;23;1436;-86
2021/12/30 01:55:16;;;;;;;23.05;5.65;;;;;;;10.17;100.00;100549.34;823127;23;1356;-86
2021/12/30 01:55:41;;;;;;;21.23;5.63;;;;;;;10.12;100.00;100517.16;832861;23;6344;-86
2021/12/30 01:56:06;;;;;;;21.33;5.55;;;;;;;10.15;100.00;100524.09;831609;23;1419;-86
2021/12/30 01:56:34;;;;;;;19.50;5.57;;;;;;;10.16;100.00;100525.84;822056;23;1268;-87
2021/12/30 01:57:03;;;;;;;20.90;5.13;;;;;;;10.10;100.00;100518.91;823158;23;1258;-86
2021/12/30 01:57:45;;;;;;;24.73;5.80;;;;;;;10.04;100.00;100521.56;822887;23;1440;-86
2021/12/30 01:58:14;;;;;;;21.33;5.47;;;;;;;9.99;100.00;100508.50;825078;23;4244;-86
2021/12/30 01:58:36;;;;;;;23.25;5.95;;;;;;;9.98;100.00;100532.03;824256;23;1474;-86
2021/12/30 01:58:57;;;;;;;23.63;5.95;;;;;;;9.96;100.00;100534.63;823013;23;1258;-86
2021/12/30 01:59:27;;;;;;;20.27;5.32;;;;;;;9.97;100.00;100506.78;821946;23;1926;-86
2021/12/30 01:59:51;;;;;;;22.10;5.35;;;;;;;9.94;100.00;100540.75;827382;23;924;-86
2021/12/30 02:00:36;;;;;;;23.15;5.60;;;;;;;9.91;100.00;100512.03;822288;24;1344;-86
2021/12/30 02:01:05;;;;;;;22.42;5.60;;;;;;;9.90;100.00;100513.78;830888;23;1411;-87
2021/12/30 02:01:30;;;;;;;24.55;5.80;;;;;;;9.87;100.00;100529.44;815704;23;4214;-87
2021/12/30 02:02:04;;;;;;;19.65;5.25;;;;;;;9.85;100.00;100508.56;826262;23;1236;-86
2021/12/30 02:02:33;;;;;;;25.52;5.45;;;;;;;9.83;100.00;100533.81;829759;23;1179;-86
2021/12/30 02:03:09;;;;;;;21.10;5.63;;;;;;;9.90;100.00;100545.13;825081;23;882;-85
2021/12/30 02:03:41;;;;;;;22.08;6.22;;;;;;;9.88;100.00;100505.06;818928;24;1421;-86
2021/12/30 02:04:25;;;;;;;24.67;5.57;;;;;;;9.85;100.00;100515.53;825522;23;1371;-86
2021/12/30 02:04:48;;;;;;;21.38;5.53;;;;;;;9.84;100.00;100499.03;829316;23;4749;-86
2021/12/30 02:05:13;;;;;;;23.42;5.90;;;;;;;9.84;100.00;100505.97;826926;23;1334;-86
2021/12/30 02:05:41;;;;;;;20.25;5.80;;;;;;;9.84;100.00;100525.13;830398;23;1429;-86
2021/12/30 02:06:16;;;;;;;19.77;5.28;;;;;;;9.95;100.00;100500.69;826136;23;1316;-86
2021/12/30 02:06:39;;;;;;;21.52;5.57;;;;;;;9.91;100.00;100499.84;826320;23;1257;-86
2021/12/30 02:07:13;;;;;;;23.52;5.80;;;;;;;9.89;100.00;100520.72;822465;24;1369;-86
2021/12/30 02:07:34;;;;;;;26.60;5.72;;;;;;;9.89;100.00;100518.13;826090;23;5030;-86
2021/12/30 02:08:01;;;;;;;21.27;5.60;;;;;;;9.89;100.00;100499.84;825707;23;1339;-86
2021/12/30 02:08:27;;;;;;;22.48;5.53;;;;;;;9.88;100.00;100521.63;822489;23;1379;-85
2021/12/30 02:08:57;;;;;;;21.90;5.80;;;;;;;9.89;100.00;100520.72;823678;24;833;-86
2021/12/30 02:09:30;;;;;;;20.92;5.38;;;;;;;10.08;100.00;100497.16;818036;24;1097;-86
2021/12/30 02:10:02;;;;;;;23.10;5.65;;;;;;;10.07;100.00;100503.25;829396;23;1111;-87
2021/12/30 02:10:23;;;;;;;21.13;5.45;;;;;;;10.05;100.00;100518.06;815344;23;4261;-86
2021/12/30 02:10:49;;;;;;;18.77;5.45;;;;;;;10.10;100.00;100525.88;828454;23;1297;-86
2021/12/30 02:11:29;;;;;;;23.73;5.50;;;;;;;10.22;100.00;100516.22;820363;24;1185;-86
2021/12/30 02:11:51;;;;;;;21.42;5.63;;;;;;;10.20;100.00;100525.84;821738;24;901;-86
2021/12/30 02:12:25;;;;;;;20.63;5.40;;;;;;;10.19;100.00;100536.25;810839;24;1309;-85
2021/12/30 02:13:03;;;;;;;19.40;5.50;;;;;;;10.11;100.00;100518.03;816309;24;1367;-87
2021/12/30 02:13:29;;;;;;;23.73;5.60;;;;;;;10.09;100.00;100529.38;805900;24;4262;-86
2021/12/30 02:13:59;;;;;;;22.50;5.85;;;;;;;10.08;100.00;100510.22;829068;23;1369;-86
2021/12/30 02:14:43;;;;;;;21.55;5.55;;;;;;;10.06;100.00;100519.78;830364;23;1508;-86
2021/12/30 02:15:17;;;;;;;20.98;5.60;;;;;;;10.10;100.00;100515.44;820548;24;1246;-85
2021/12/30 02:15:55;;;;;;;19.98;5.47;;;;;;;10.07;100.00;100531.97;819321;24;1266;-86
2021/12/30 02:16:23;;;;;;;23.58;5.53;;;;;;;10.00;100.00;100527.66;818042;24;4233;-86
2021/12/30 02:17:03;;;;;;;26.50;5.72;;;;;;;10.00;100.00;100504.16;814771;24;1328;-86
2021/12/30 02:17:34;;;;;;;27.75;5.85;;;;;;;9.95;100.00;100516.38;830474;23;1003;-85
2021/12/30 02:18:11;;;;;;;21.30;5.53;;;;;;;9.92;100.00;100519.84;827247;23;1257;-86
2021/12/30 02:18:45;;;;;;;20.38;5.20;;;;;;;9.88;100.00;100515.53;825731;23;1341;-85
2021/12/30 02:19:08;;;;;;;24.77;6.00;;;;;;;9.89;100.00;100510.28;830756;23;1402;-85
2021/12/30 02:19:31;;;;;;;21.80;5.47;;;;;;;9.87;100.00;100519.88;825072;23;4300;-86
2021/12/30 02:20:15;;;;;;;24.63;6.00;;;;;;;9.85;100.00;100498.13;827531;23;1445;-87
2021/12/30 02:20:58;;;;;;;22.65;5.70;;;;;;;9.81;100.00;100514.69;821701;24;897;-86
2021/12/30 02:21:43;;;;;;;23.77;6.18;;;;;;;9.82;100.00;100489.47;816133;24;1437;-86
2021/12/30 02:22:40;;;;;;;23.10;5.95;;;;;;;10.03;100.00;100494.56;825301;23;4271;-85
2021/12/30 02:23:04;;;;;;;25.70;6.07;;;;;;;9.98;100.00;100506.78;826311;23;864;-85
2021/12/30 02:23:45;;;;;;;20.85;6.05;;;;;;;9.94;100.00;100493.72;825154;23;1320;-85
2021/12/30 02:24:11;;;;;;;23.20;5.55;;;;;;;9.89;100.00;100497.22;827126;23;1213;-86
2021/12/30 02:24:34;;;;;;;21.40;5.50;;;;;;;9.93;100.00;100523.31;825465;23;938;-85
2021/12/30 02:25:08;;;;;;;26.48;5.80;;;;;;;9.90;100.00;100513.78;825864;23;1331;-86
2021/12/30 02:25:29;;;;;;;25.25;5.63;;;;;;;9.87;100.00;100517.28;815517;23;4272;-85
2021/12/30 02:25:52;;;;;;;22.23;5.73;;;;;;;9.88;100.00;100513.81;830577;23;1146;-86
2021/12/30 02:26:19;;;;;;;23.08;5.93;;;;;;;9.87;100.00;100501.63;822231;23;1280;-86
2021/12/30 02:26:56;;;;;;;;;;;;;;;;;;;;;
2021/12/30 02:27:49;;;;;;;27.65;6.13;;;;;;;9.84;100.00;100504.25;824207;24;909;-85
2021/12/30 02:28:34;;;;;;;;;;;;;;;;;;;;;
2021/12/30 02:28:55;;;;;;;28.27;6.20;;;;;;;9.84;100.00;100499.03;835084;23;1030;-86
2021/12/30 02:29:34;;;;;;;29.77;6.30;;;;;;;9.81;100.00;100504.22;830934;23;1309;-85
2021/12/30 02:30:27;;;;;;;;;;;;;;;;;;;;;
2021/12/30 02:31:19;;;;;;;27.52;6.35;;;;;;;9.84;100.00;100527.75;831173;23;1395;-86
2021/12/30 02:31:50;;;;;;;25.98;6.10;;;;;;;9.83;100.00;100499.00;830066;23;4754;-86
2021/12/30 02:32:28;;;;;;;;;;;;;;;;;;;;;
2021/12/30 02:32:55;;;;;;;28.77;6.68;;;;;;;9.82;100.00;100528.63;828693;23;1260;-86
2021/12/30 02:33:33;;;;;;;26.92;6.60;;;;;;;9.85;100.00;100489.44;830580;23;1451;-86
2021/12/30 02:34:21;;;;;;;24.10;6.32;;;;;;;9.85;100.00;100511.19;838770;23;1271;-86
2021/12/30 02:35:03;;;;;;;30.85;6.63;;;;;;;9.86;100.00;100514.69;821908;23;4692;-86
2021/12/30 02:35:31;;;;;;;31.00;6.90;;;;;;;9.86;100.00;100499.00;835369;23;1292;-86
2021/12/30 02:37:27;;;;;;;32.10;6.95;;;;;;;9.84;100.00;100509.47;833824;23;1426;-86
2021/12/30 02:38:00;;;;;;;26.98;6.55;;;;;;;9.83;100.00;100479.00;834023;23;1351;-86
2021/12/30 02:38:45;;;;;;;25.83;6.30;;;;;;;9.84;100.00;100512.06;831689;23;1172;-86
2021/12/30 02:39:23;;;;;;;23.67;6.28;;;;;;;9.84;100.00;100524.25;830344;23;1219;-86
2021/12/30 02:40:04;;;;;;;25.92;6.50;;;;;;;9.82;100.00;100521.63;830791;23;1306;-85
2021/12/30 02:40:49;;;;;;;25.52;6.13;;;;;;;9.87;100.00;100488.56;834102;23;4911;-86
2021/12/30 02:42:37;;;;;;;25.20;5.78;;;;;;;9.88;100.00;100490.31;833068;23;1105;-86
2021/12/30 02:43:23;;;;;;;21.55;5.57;;;;;;;9.88;100.00;100519.03;836073;23;1277;-86
2021/12/30 02:43:50;;;;;;;21.88;5.68;;;;;;;9.86;100.00;100486.81;837794;23;4811;-86
2021/12/30 02:44:22;;;;;;;28.02;6.53;;;;;;;9.87;100.00;100496.38;830616;23;1240;-86
2021/12/30 02:45:03;;;;;;;22.10;5.47;;;;;;;9.89;100.00;100497.22;818963;24;1364;-86
2021/12/30 02:45:41;;;;;;;25.27;5.72;;;;;;;9.88;100.00;100482.47;822115;23;1351;-87
2021/12/30 02:46:07;;;;;;;25.48;5.80;;;;;;;9.87;100.00;100498.13;829135;23;1297;-85
2021/12/30 02:46:35;;;;;;;26.88;5.97;;;;;;;9.87;100.00;100500.72;829377;23;4230;-86
2021/12/30 02:47:14;;;;;;;21.50;6.10;;;;;;;9.86;100.00;100499.88;823547;24;904;-86
2021/12/30 02:47:35;;;;;;;26.13;6.65;;;;;;;9.94;100.00;100509.41;823431;24;1050;-85
2021/12/30 02:48:05;;;;;;;25.15;6.30;;;;;;;9.93;100.00;100507.66;814372;24;1240;-86
2021/12/30 02:48:31;;;;;;;25.15;6.10;;;;;;;9.88;100.00;100502.47;818638;24;988;-85
2021/12/30 02:48:59;;;;;;;23.65;6.13;;;;;;;9.89;100.00;100507.69;822697;23;1260;-86
2021/12/30 02:49:40;;;;;;;23.05;5.60;;;;;;;9.86;100.00;100481.59;825051;23;4798;-86
2021/12/30 02:50:09;;;;;;;24.10;6.25;;;;;;;9.89;100.00;100515.50;831844;23;890;-86
2021/12/30 02:50:36;;;;;;;25.20;5.78;;;;;;;9.86;100.00;100497.25;830319;23;1323;-86
2021/12/30 02:51:07;;;;;;;30.92;6.55;;;;;;;9.88;100.00;100508.56;830942;23;1376;-86
2021/12/30 02:51:39;;;;;;;25.83;6.28;;;;;;;9.88;100.00;100494.63;833249;23;1462;-85
2021/12/30 02:52:23;;;;;;;25.92;6.28;;;;;;;9.89;100.00;100518.13;809722;23;4416;-86
2021/12/30 02:52:59;;;;;;;24.48;6.40;;;;;;;9.87;100.00;100509.44;823372;23;1488;-86
2021/12/30 02:53:23;;;;;;;25.98;6.60;;;;;;;9.88;100.00;100518.13;833613;23;1205;-85
2021/12/30 02:53:49;;;;;;;26.55;6.30;;;;;;;9.87;100.00;100491.16;826651;23;1214;-85
2021/12/30 02:54:26;;;;;;;;;;;;;;;;;;;;;
2021/12/30 02:54:59;;;;;;;21.95;6.22;;;;;;;9.91;100.00;100525.94;823014;23;1514;-86
2021/12/30 02:55:28;;;;;;;23.88;6.72;;;;;;;9.88;100.00;100500.75;815047;23;4353;-85
2021/12/30 02:56:13;;;;;;;32.78;7.05;;;;;;;9.90;100.00;100524.22;838879;23;880;-85
2021/12/30 02:56:46;;;;;;;29.13;7.18;;;;;;;9.89;100.00;100492.00;835863;23;1186;-86
2021/12/30 02:57:08;;;;;;;28.38;7.40;;;;;;;9.88;100.00;100510.31;830960;23;1351;-86
2021/12/30 02:57:31;;;;;;;32.10;7.22;;;;;;;9.88;100.00;100516.41;823878;24;1444;-85
2021/12/30 02:57:59;;;;;;;34.55;7.30;;;;;;;9.89;100.00;100523.34;827664;23;1385;-86
2021/12/30 02:58:24;;;;;;;29.20;7.05;;;;;;;9.89;100.00;100509.44;822279;23;4267;-86
2021/12/30 02:58:45;;;;;;;26.95;6.65;;;;;;;9.98;100.00;100491.13;830446;23;1005;-86
2021/12/30 02:59:06;;;;;;;23.38;6.50;;;;;;;10.06;100.00;100519.78;822630;23;1442;-86
2021/12/30 02:59:36;;;;;;;22.52;6.40;;;;;;;10.04;100.00;100524.16;830037;23;1933;-86
2021/12/30 03:00:08;;;;;;;25.08;6.03;;;;;;;10.03;100.00;100532.88;826822;23;1397;-86
2021/12/30 03:00:55;;;;;;;24.42;6.18;;;;;;;10.00;100.00;100525.06;831298;23;1450;-86
2021/12/30 03:01:22;;;;;;;22.58;6.68;;;;;;;9.99;100.00;100533.75;832333;23;4346;-86
2021/12/30 03:01:55;;;;;;;29.52;7.50;;;;;;;9.99;100.00;100518.09;829916;23;1453;-86
2021/12/30 03:02:16;;;;;;;22.63;6.35;;;;;;;9.98;100.00;100530.28;826496;23;1399;-87
2021/12/30 03:02:39;;;;;;;22.48;6.13;;;;;;;9.99;100.00;100521.56;826371;23;1408;-86
2021/12/30 03:03:19;;;;;;;20.00;5.93;;;;;;;9.98;100.00;100500.69;827008;23;1102;-86
2021/12/30 03:03:45;;;;;;;25.05;6.47;;;;;;;9.96;100.00;100513.75;830378;23;1382;-86
2021/12/30 03:04:15;;;;;;;23.05;6.25;;;;;;;9.97;100.00;100525.94;827007;23;1257;-85
2021/12/30 03:04:44;;;;;;;24.42;6.32;;;;;;;9.99;100.00;100528.53;821162;23;4640;-86
2021/12/30 03:05:24;;;;;;;22.17;6.43;;;;;;;10.04;100.00;100505.88;826137;23;1338;-85
2021/12/30 03:06:01;;;;;;;22.52;6.28;;;;;;;10.04;100.00;100506.75;830986;23;1007;-86
2021/12/30 03:06:28;;;;;;;24.58;6.32;;;;;;;10.03;100.00;100504.16;826044;23;1279;-86
2021/12/30 03:06:51;;;;;;;25.33;6.43;;;;;;;10.03;100.00;100546.78;822154;23;1428;-86
2021/12/30 03:07:16;;;;;;;29.45;6.78;;;;;;;10.03;100.00;100525.91;825365;23;4335;-86
2021/12/30 03:07:55;;;;;;;26.55;6.82;;;;;;;9.99;100.00;100516.34;826645;23;1329;-86
2021/12/30 03:08:21;;;;;;;21.10;6.20;;;;;;;10.05;100.00;100505.00;825781;23;1304;-86
2021/12/30 03:08:59;;;;;;;20.90;6.00;;;;;;;10.02;100.00;100503.28;829938;23;1366;-87
2021/12/30 03:10:09;;;;;;;25.63;6.05;;;;;;;10.00;100.00;100523.31;833709;23;1446;-86
2021/12/30 03:10:30;;;;;;;24.67;7.05;;;;;;;10.10;100.00;100500.63;813612;23;4637;-85